sensor_id;sensor_type;location;lat;lon;timestamp;pressure;altitude;pressure_sealevel;temperature;humidity
11712;BME280;5912;51.034;6.984;2023-02-11T00:00:04;100587.56;;;-1.98;86.39
11712;BME280;5912;51.034;6.984;2023-02-11T00:02:31;100614.78;;;-1.85;86.44
11712;BME280;5912;51.034;6.984;2023-02-11T00:04:57;100612.69;;;-1.91;86.88
11712;BME280;5912;51.034;6.984;2023-02-11T00:07:22;100580.72;;;-2.09;87.42
11712;BME280;5912;51.034;6.984;2023-02-11T00:09:47;100614.00;;;-1.96;87.49
11712;BME280;5912;51.034;6.984;2023-02-11T00:12:13;100603.63;;;-2.06;87.58
11712;BME280;5912;51.034;6.984;2023-02-11T00:14:40;100609.72;;;-2.07;88.23
11712;BME280;5912;51.034;6.984;2023-02-11T00:17:05;100602.47;;;-2.13;87.89
11712;BME280;5912;51.034;6.984;2023-02-11T00:19:31;100605.19;;;-2.14;88.89
11712;BME280;5912;51.034;6.984;2023-02-11T00:21:56;100604.13;;;-2.12;88.65
11712;BME280;5912;51.034;6.984;2023-02-11T00:24:21;100605.06;;;-2.13;88.36
11712;BME280;5912;51.034;6.984;2023-02-11T00:26:47;100591.84;;;-2.19;88.79
11712;BME280;5912;51.034;6.984;2023-02-11T00:29:12;100576.09;;;-2.26;88.84
11712;BME280;5912;51.034;6.984;2023-02-11T00:31:37;100577.78;;;-2.36;89.35
11712;BME280;5912;51.034;6.984;2023-02-11T00:34:03;100593.44;;;-2.28;89.12
11712;BME280;5912;51.034;6.984;2023-02-11T00:36:28;100591.91;;;-2.30;89.47
11712;BME280;5912;51.034;6.984;2023-02-11T00:38:55;100576.84;;;-2.35;90.27
11712;BME280;5912;51.034;6.984;2023-02-11T00:41:22;100584.75;;;-2.27;89.52
11712;BME280;5912;51.034;6.984;2023-02-11T00:43:48;100577.41;;;-2.31;89.46
11712;BME280;5912;51.034;6.984;2023-02-11T00:46:14;100573.31;;;-2.34;89.71
11712;BME280;5912;51.034;6.984;2023-02-11T00:48:39;100567.38;;;-2.34;89.90
11712;BME280;5912;51.034;6.984;2023-02-11T00:51:05;100568.75;;;-2.30;90.34
11712;BME280;5912;51.034;6.984;2023-02-11T00:53:31;100560.09;;;-2.29;90.60
11712;BME280;5912;51.034;6.984;2023-02-11T00:55:56;100560.34;;;-2.32;90.70
11712;BME280;5912;51.034;6.984;2023-02-11T00:58:21;100554.50;;;-2.34;90.17
11712;BME280;5912;51.034;6.984;2023-02-11T01:00:47;100553.78;;;-2.36;90.25
11712;BME280;5912;51.034;6.984;2023-02-11T01:03:13;100559.06;;;-2.38;90.03
11712;BME280;5912;51.034;6.984;2023-02-11T01:05:38;100558.63;;;-2.43;90.55
11712;BME280;5912;51.034;6.984;2023-02-11T01:08:04;100562.94;;;-2.43;90.14
11712;BME280;5912;51.034;6.984;2023-02-11T01:10:29;100570.44;;;-2.40;91.20
11712;BME280;5912;51.034;6.984;2023-02-11T01:12:55;100573.81;;;-2.40;90.73
11712;BME280;5912;51.034;6.984;2023-02-11T01:15:20;100572.31;;;-2.42;90.57
11712;BME280;5912;51.034;6.984;2023-02-11T01:17:45;100565.88;;;-2.48;90.62
11712;BME280;5912;51.034;6.984;2023-02-11T01:20:17;100564.97;;;-2.47;91.63
11712;BME280;5912;51.034;6.984;2023-02-11T01:22:42;100566.13;;;-2.51;90.76
11712;BME280;5912;51.034;6.984;2023-02-11T01:25:08;100537.66;;;-2.70;91.51
11712;BME280;5912;51.034;6.984;2023-02-11T01:27:34;100561.72;;;-2.60;91.75
11712;BME280;5912;51.034;6.984;2023-02-11T01:30:01;100561.97;;;-2.63;91.26
11712;BME280;5912;51.034;6.984;2023-02-11T01:32:26;100562.75;;;-2.62;91.52
11712;BME280;5912;51.034;6.984;2023-02-11T01:34:52;100557.63;;;-2.62;92.33
11712;BME280;5912;51.034;6.984;2023-02-11T01:37:17;100552.84;;;-2.67;92.43
11712;BME280;5912;51.034;6.984;2023-02-11T01:39:43;100570.13;;;-2.58;92.83
11712;BME280;5912;51.034;6.984;2023-02-11T01:42:21;100573.88;;;-2.62;92.77
11712;BME280;5912;51.034;6.984;2023-02-11T01:44:51;100575.41;;;-2.59;92.27
11712;BME280;5912;51.034;6.984;2023-02-11T01:47:17;100566.31;;;-2.74;92.48
11712;BME280;5912;51.034;6.984;2023-02-11T01:49:56;100597.16;;;-2.63;92.52
11712;BME280;5912;51.034;6.984;2023-02-11T01:52:30;100574.38;;;-2.68;93.62
11712;BME280;5912;51.034;6.984;2023-02-11T01:55:00;100571.09;;;-2.70;93.33
11712;BME280;5912;51.034;6.984;2023-02-11T01:57:47;100558.69;;;-2.65;92.98
11712;BME280;5912;51.034;6.984;2023-02-11T02:00:25;100567.22;;;-2.64;93.53
11712;BME280;5912;51.034;6.984;2023-02-11T02:05:34;100569.56;;;-2.61;93.92
11712;BME280;5912;51.034;6.984;2023-02-11T02:10:29;100557.19;;;-2.67;92.97
11712;BME280;5912;51.034;6.984;2023-02-11T02:12:56;100553.66;;;-2.66;93.58
11712;BME280;5912;51.034;6.984;2023-02-11T02:18:18;100551.22;;;-2.68;94.02
11712;BME280;5912;51.034;6.984;2023-02-11T02:21:18;100562.34;;;-2.67;93.62
11712;BME280;5912;51.034;6.984;2023-02-11T02:30:10;100545.94;;;-2.66;94.32
11712;BME280;5912;51.034;6.984;2023-02-11T02:35:50;100523.19;;;-2.82;93.94
11712;BME280;5912;51.034;6.984;2023-02-11T02:38:31;100536.53;;;-2.77;94.25
11712;BME280;5912;51.034;6.984;2023-02-11T02:41:15;100532.78;;;-2.84;93.91
11712;BME280;5912;51.034;6.984;2023-02-11T02:43:43;100529.50;;;-2.86;94.93
11712;BME280;5912;51.034;6.984;2023-02-11T02:46:22;100507.91;;;-2.83;95.12
11712;BME280;5912;51.034;6.984;2023-02-11T02:48:49;100485.25;;;-3.01;95.02
11712;BME280;5912;51.034;6.984;2023-02-11T02:56:53;100506.56;;;-2.78;94.83
11712;BME280;5912;51.034;6.984;2023-02-11T02:59:52;100496.63;;;-2.71;95.45
11712;BME280;5912;51.034;6.984;2023-02-11T03:02:37;100487.75;;;-2.67;94.58
11712;BME280;5912;51.034;6.984;2023-02-11T03:05:21;100497.91;;;-2.66;95.21
11712;BME280;5912;51.034;6.984;2023-02-11T03:07:53;100500.03;;;-2.71;94.25
11712;BME280;5912;51.034;6.984;2023-02-11T03:10:30;100494.06;;;-2.71;95.15
11712;BME280;5912;51.034;6.984;2023-02-11T03:12:57;100493.34;;;-2.73;94.75
11712;BME280;5912;51.034;6.984;2023-02-11T03:15:26;100490.91;;;-2.75;95.12
11712;BME280;5912;51.034;6.984;2023-02-11T03:17:55;100490.91;;;-2.75;95.24
11712;BME280;5912;51.034;6.984;2023-02-11T03:20:22;100495.00;;;-2.72;94.83
11712;BME280;5912;51.034;6.984;2023-02-11T03:22:57;100492.56;;;-2.74;94.28
11712;BME280;5912;51.034;6.984;2023-02-11T03:25:29;100497.19;;;-2.68;94.79
11712;BME280;5912;51.034;6.984;2023-02-11T03:28:07;100494.63;;;-2.68;94.92
11712;BME280;5912;51.034;6.984;2023-02-11T03:30:38;100488.88;;;-2.60;94.27
11712;BME280;5912;51.034;6.984;2023-02-11T03:33:14;100486.03;;;-2.57;93.83
11712;BME280;5912;51.034;6.984;2023-02-11T03:35:49;100469.47;;;-2.64;93.80
11712;BME280;5912;51.034;6.984;2023-02-11T03:38:30;100476.66;;;-2.47;93.74
11712;BME280;5912;51.034;6.984;2023-02-11T03:40:57;100460.50;;;-2.49;93.94
11712;BME280;5912;51.034;6.984;2023-02-11T03:43:33;100452.41;;;-2.45;93.58
11712;BME280;5912;51.034;6.984;2023-02-11T03:46:00;100454.63;;;-2.40;92.84
11712;BME280;5912;51.034;6.984;2023-02-11T03:48:33;100459.41;;;-2.36;93.05
11712;BME280;5912;51.034;6.984;2023-02-11T03:51:02;100463.59;;;-2.35;92.45
11712;BME280;5912;51.034;6.984;2023-02-11T03:53:29;100467.13;;;-2.36;92.44
11712;BME280;5912;51.034;6.984;2023-02-11T03:55:56;100471.75;;;-2.30;92.12
11712;BME280;5912;51.034;6.984;2023-02-11T03:58:24;100453.81;;;-2.41;92.23
11712;BME280;5912;51.034;6.984;2023-02-11T04:00:49;100486.00;;;-2.26;92.40
11712;BME280;5912;51.034;6.984;2023-02-11T04:03:14;100488.56;;;-2.26;92.09
11712;BME280;5912;51.034;6.984;2023-02-11T04:05:40;100495.63;;;-2.28;91.54
11712;BME280;5912;51.034;6.984;2023-02-11T04:08:05;100486.69;;;-2.24;91.06
11712;BME280;5912;51.034;6.984;2023-02-11T04:10:31;100490.22;;;-2.25;91.52
11712;BME280;5912;51.034;6.984;2023-02-11T04:12:56;100484.81;;;-2.22;91.27
11712;BME280;5912;51.034;6.984;2023-02-11T04:15:22;100478.72;;;-2.21;91.40
11712;BME280;5912;51.034;6.984;2023-02-11T04:17:47;100470.34;;;-2.23;91.00
11712;BME280;5912;51.034;6.984;2023-02-11T04:20:12;100446.72;;;-2.28;91.44
11712;BME280;5912;51.034;6.984;2023-02-11T04:22:38;100454.63;;;-2.20;90.92
11712;BME280;5912;51.034;6.984;2023-02-11T04:25:04;100442.03;;;-2.23;91.01
11712;BME280;5912;51.034;6.984;2023-02-11T04:27:30;100434.91;;;-2.30;90.70
11712;BME280;5912;51.034;6.984;2023-02-11T04:29:55;100449.34;;;-2.18;90.71
11712;BME280;5912;51.034;6.984;2023-02-11T04:32:21;100448.53;;;-2.19;91.20
11712;BME280;5912;51.034;6.984;2023-02-11T04:34:46;100443.63;;;-2.22;91.15
11712;BME280;5912;51.034;6.984;2023-02-11T04:37:12;100442.13;;;-2.24;91.71
11712;BME280;5912;51.034;6.984;2023-02-11T04:39:37;100435.34;;;-2.25;91.21
11712;BME280;5912;51.034;6.984;2023-02-11T04:42:03;100442.94;;;-2.24;91.34
11712;BME280;5912;51.034;6.984;2023-02-11T04:44:29;100436.19;;;-2.25;91.45
11712;BME280;5912;51.034;6.984;2023-02-11T04:46:55;100438.75;;;-2.25;91.29
11712;BME280;5912;51.034;6.984;2023-02-11T04:49:21;100431.81;;;-2.24;91.56
11712;BME280;5912;51.034;6.984;2023-02-11T04:51:47;100430.19;;;-2.25;91.52
11712;BME280;5912;51.034;6.984;2023-02-11T04:54:12;100431.94;;;-2.26;92.12
11712;BME280;5912;51.034;6.984;2023-02-11T04:56:37;100429.63;;;-2.29;92.00
11712;BME280;5912;51.034;6.984;2023-02-11T04:59:03;100431.41;;;-2.29;91.99
11712;BME280;5912;51.034;6.984;2023-02-11T05:01:29;100425.44;;;-2.30;91.61
11712;BME280;5912;51.034;6.984;2023-02-11T05:03:54;100431.53;;;-2.31;91.89
11712;BME280;5912;51.034;6.984;2023-02-11T05:06:20;100431.41;;;-2.29;92.28
11712;BME280;5912;51.034;6.984;2023-02-11T05:08:46;100428.00;;;-2.30;91.99
11712;BME280;5912;51.034;6.984;2023-02-11T05:11:16;100439.00;;;-2.28;91.99
11712;BME280;5912;51.034;6.984;2023-02-11T05:13:42;100433.03;;;-2.28;91.65
11712;BME280;5912;51.034;6.984;2023-02-11T05:16:07;100431.28;;;-2.28;92.42
11712;BME280;5912;51.034;6.984;2023-02-11T05:18:35;100421.38;;;-2.32;92.39
11712;BME280;5912;51.034;6.984;2023-02-11T05:21:05;100411.56;;;-2.38;91.87
11712;BME280;5912;51.034;6.984;2023-02-11T05:23:31;100421.47;;;-2.34;92.07
11712;BME280;5912;51.034;6.984;2023-02-11T05:25:58;100431.41;;;-2.29;92.18
11712;BME280;5912;51.034;6.984;2023-02-11T05:28:23;100439.38;;;-2.32;92.51
11712;BME280;5912;51.034;6.984;2023-02-11T05:30:48;100423.81;;;-2.31;92.25
11712;BME280;5912;51.034;6.984;2023-02-11T05:33:14;100414.56;;;-2.33;92.06
11712;BME280;5912;51.034;6.984;2023-02-11T05:35:39;100418.66;;;-2.31;92.25
11712;BME280;5912;51.034;6.984;2023-02-11T05:38:04;100391.63;;;-2.46;92.33
11712;BME280;5912;51.034;6.984;2023-02-11T05:40:30;100412.97;;;-2.34;92.64
11712;BME280;5912;51.034;6.984;2023-02-11T05:42:55;100403.72;;;-2.37;92.85
11712;BME280;5912;51.034;6.984;2023-02-11T05:45:20;100409.44;;;-2.33;93.32
11712;BME280;5912;51.034;6.984;2023-02-11T05:47:45;100415.41;;;-2.33;93.33
11712;BME280;5912;51.034;6.984;2023-02-11T05:50:11;100412.00;;;-2.33;93.05
11712;BME280;5912;51.034;6.984;2023-02-11T05:52:36;100420.28;;;-2.30;93.23
11712;BME280;5912;51.034;6.984;2023-02-11T05:55:02;100392.44;;;-2.45;93.59
11712;BME280;5912;51.034;6.984;2023-02-11T05:57:27;100401.13;;;-2.37;93.88
11712;BME280;5912;51.034;6.984;2023-02-11T05:59:53;100402.78;;;-2.36;93.63
11712;BME280;5912;51.034;6.984;2023-02-11T06:02:18;100392.94;;;-2.31;93.38
11712;BME280;5912;51.034;6.984;2023-02-11T06:04:43;100362.34;;;-2.45;94.38
11712;BME280;5912;51.034;6.984;2023-02-11T06:07:09;100384.53;;;-2.33;93.70
11712;BME280;5912;51.034;6.984;2023-02-11T06:09:37;100385.22;;;-2.31;94.21
11712;BME280;5912;51.034;6.984;2023-02-11T06:12:03;100389.53;;;-2.31;94.84
11712;BME280;5912;51.034;6.984;2023-02-11T06:14:28;100373.66;;;-2.36;94.90
11712;BME280;5912;51.034;6.984;2023-02-11T06:16:53;100380.06;;;-2.31;95.92
11712;BME280;5912;51.034;6.984;2023-02-11T06:19:19;100381.25;;;-2.35;95.52
11712;BME280;5912;51.034;6.984;2023-02-11T06:21:44;100383.81;;;-2.35;96.17
11712;BME280;5912;51.034;6.984;2023-02-11T06:24:10;100388.28;;;-2.37;96.47
11712;BME280;5912;51.034;6.984;2023-02-11T06:26:36;100382.59;;;-2.40;95.84
11712;BME280;5912;51.034;6.984;2023-02-11T06:29:02;100378.50;;;-2.43;96.87
11712;BME280;5912;51.034;6.984;2023-02-11T06:31:27;100383.38;;;-2.40;96.73
11712;BME280;5912;51.034;6.984;2023-02-11T06:33:52;100384.22;;;-2.39;97.50
11712;BME280;5912;51.034;6.984;2023-02-11T06:36:20;100377.44;;;-2.40;97.03
11712;BME280;5912;51.034;6.984;2023-02-11T06:38:46;100372.53;;;-2.43;97.16
11712;BME280;5912;51.034;6.984;2023-02-11T06:41:13;100376.88;;;-2.44;97.81
11712;BME280;5912;51.034;6.984;2023-02-11T06:43:40;100368.72;;;-2.49;97.95
11712;BME280;5912;51.034;6.984;2023-02-11T06:46:06;100379.84;;;-2.48;97.57
11712;BME280;5912;51.034;6.984;2023-02-11T06:48:32;100383.31;;;-2.49;97.93
11712;BME280;5912;51.034;6.984;2023-02-11T06:51:03;100380.56;;;-2.57;98.39
11712;BME280;5912;51.034;6.984;2023-02-11T06:53:29;100388.72;;;-2.52;98.34
11712;BME280;5912;51.034;6.984;2023-02-11T06:56:05;100379.78;;;-2.58;97.95
11712;BME280;5912;51.034;6.984;2023-02-11T06:58:33;100391.44;;;-2.54;98.84
11712;BME280;5912;51.034;6.984;2023-02-11T07:00:59;100392.38;;;-2.55;98.60
11712;BME280;5912;51.034;6.984;2023-02-11T07:03:25;100391.56;;;-2.55;98.21
11712;BME280;5912;51.034;6.984;2023-02-11T07:05:50;100371.88;;;-2.66;98.97
11712;BME280;5912;51.034;6.984;2023-02-11T07:08:15;100383.72;;;-2.54;98.57
11712;BME280;5912;51.034;6.984;2023-02-11T07:10:41;100391.03;;;-2.49;98.81
11712;BME280;5912;51.034;6.984;2023-02-11T07:13:06;100386.28;;;-2.54;98.87
11712;BME280;5912;51.034;6.984;2023-02-11T07:15:32;100385.91;;;-2.49;100.00
11712;BME280;5912;51.034;6.984;2023-02-11T07:17:57;100385.78;;;-2.48;100.00
11712;BME280;5912;51.034;6.984;2023-02-11T07:20:24;100384.84;;;-2.47;100.00
11712;BME280;5912;51.034;6.984;2023-02-11T07:22:49;100379.13;;;-2.50;100.00
11712;BME280;5912;51.034;6.984;2023-02-11T07:25:15;100386.03;;;-2.51;100.00
11712;BME280;5912;51.034;6.984;2023-02-11T07:27:40;100381.84;;;-2.52;100.00
11712;BME280;5912;51.034;6.984;2023-02-11T07:30:06;100387.25;;;-2.55;100.00
11712;BME280;5912;51.034;6.984;2023-02-11T07:32:31;100379.22;;;-2.61;100.00
11712;BME280;5912;51.034;6.984;2023-02-11T07:34:56;100383.41;;;-2.60;100.00
11712;BME280;5912;51.034;6.984;2023-02-11T07:37:22;100389.38;;;-2.60;100.00
11712;BME280;5912;51.034;6.984;2023-02-11T07:39:47;100385.41;;;-2.64;100.00
11712;BME280;5912;51.034;6.984;2023-02-11T07:42:12;100375.09;;;-2.64;100.00
11712;BME280;5912;51.034;6.984;2023-02-11T07:44:38;100384.59;;;-2.64;100.00
11712;BME280;5912;51.034;6.984;2023-02-11T07:47:03;100382.28;;;-2.67;100.00
11712;BME280;5912;51.034;6.984;2023-02-11T07:49:29;100377.00;;;-2.66;100.00
11712;BME280;5912;51.034;6.984;2023-02-11T07:51:54;100380.50;;;-2.67;100.00
11712;BME280;5912;51.034;6.984;2023-02-11T07:54:19;100389.50;;;-2.61;100.00
11712;BME280;5912;51.034;6.984;2023-02-11T07:56:45;100393.81;;;-2.62;100.00
11712;BME280;5912;51.034;6.984;2023-02-11T07:59:10;100392.06;;;-2.61;100.00
11712;BME280;5912;51.034;6.984;2023-02-11T08:01:35;100398.13;;;-2.62;100.00
11712;BME280;5912;51.034;6.984;2023-02-11T08:04:02;100396.25;;;-2.60;100.00
11712;BME280;5912;51.034;6.984;2023-02-11T08:06:32;100394.50;;;-2.60;100.00
11712;BME280;5912;51.034;6.984;2023-02-11T08:09:03;100405.50;;;-2.58;100.00
11712;BME280;5912;51.034;6.984;2023-02-11T08:11:29;100397.09;;;-2.60;100.00
11712;BME280;5912;51.034;6.984;2023-02-11T08:13:55;100401.16;;;-2.57;100.00
11712;BME280;5912;51.034;6.984;2023-02-11T08:16:29;100380.50;;;-2.67;100.00
11712;BME280;5912;51.034;6.984;2023-02-11T08:18:56;100388.16;;;-2.56;100.00
11712;BME280;5912;51.034;6.984;2023-02-11T08:21:22;100394.00;;;-2.54;100.00
11712;BME280;5912;51.034;6.984;2023-02-11T08:23:47;100355.44;;;-2.74;100.00
11712;BME280;5912;51.034;6.984;2023-02-11T08:26:19;100383.72;;;-2.54;100.00
11712;BME280;5912;51.034;6.984;2023-02-11T08:28:46;100393.25;;;-2.45;100.00
11712;BME280;5912;51.034;6.984;2023-02-11T08:31:14;100381.19;;;-2.44;100.00
11712;BME280;5912;51.034;6.984;2023-02-11T08:33:40;100380.94;;;-2.41;100.00
11712;BME280;5912;51.034;6.984;2023-02-11T08:36:14;100394.63;;;-2.41;100.00
11712;BME280;5912;51.034;6.984;2023-02-11T08:38:40;100385.28;;;-2.42;100.00
11712;BME280;5912;51.034;6.984;2023-02-11T08:41:06;100395.06;;;-2.36;100.00
11712;BME280;5912;51.034;6.984;2023-02-11T08:43:32;100382.81;;;-2.43;100.00
11712;BME280;5912;51.034;6.984;2023-02-11T08:45:59;100394.75;;;-2.42;100.00
11712;BME280;5912;51.034;6.984;2023-02-11T08:48:25;100394.00;;;-2.33;100.00
11712;BME280;5912;51.034;6.984;2023-02-11T08:50:50;100400.78;;;-2.32;100.00
11712;BME280;5912;51.034;6.984;2023-02-11T08:53:15;100391.28;;;-2.32;100.00
11712;BME280;5912;51.034;6.984;2023-02-11T08:55:47;100392.25;;;-2.33;100.00
11712;BME280;5912;51.034;6.984;2023-02-11T08:58:13;100402.28;;;-2.30;100.00
11712;BME280;5912;51.034;6.984;2023-02-11T09:00:38;100408.13;;;-2.28;100.00
11712;BME280;5912;51.034;6.984;2023-02-11T09:03:04;100419.09;;;-2.26;100.00
11712;BME280;5912;51.034;6.984;2023-02-11T09:05:29;100376.69;;;-2.52;100.00
11712;BME280;5912;51.034;6.984;2023-02-11T09:07:54;100410.94;;;-2.31;100.00
11712;BME280;5912;51.034;6.984;2023-02-11T09:10:19;100407.81;;;-2.34;100.00
11712;BME280;5912;51.034;6.984;2023-02-11T09:12:45;100422.47;;;-2.25;100.00
11712;BME280;5912;51.034;6.984;2023-02-11T09:15:10;100428.59;;;-2.26;100.00
11712;BME280;5912;51.034;6.984;2023-02-11T09:17:36;100429.38;;;-2.26;100.00
11712;BME280;5912;51.034;6.984;2023-02-11T09:20:01;100424.34;;;-2.27;100.00
11712;BME280;5912;51.034;6.984;2023-02-11T09:22:27;100421.25;;;-2.31;100.00
11712;BME280;5912;51.034;6.984;2023-02-11T09:24:52;100426.81;;;-2.26;100.00
11712;BME280;5912;51.034;6.984;2023-02-11T09:27:18;100427.63;;;-2.25;100.00
11712;BME280;5912;51.034;6.984;2023-02-11T09:29:43;100424.00;;;-2.23;100.00
11712;BME280;5912;51.034;6.984;2023-02-11T09:32:08;100422.22;;;-2.22;100.00
11712;BME280;5912;51.034;6.984;2023-02-11T09:34:34;100419.25;;;-2.18;100.00
11712;BME280;5912;51.034;6.984;2023-02-11T09:37:00;100407.34;;;-2.19;100.00
11712;BME280;5912;51.034;6.984;2023-02-11T09:39:25;100413.88;;;-2.15;100.00
11712;BME280;5912;51.034;6.984;2023-02-11T09:44:39;100402.91;;;-2.17;100.00
11712;BME280;5912;51.034;6.984;2023-02-11T09:49:50;100427.34;;;-2.02;100.00
11712;BME280;5912;51.034;6.984;2023-02-11T09:52:29;100425.47;;;-2.00;100.00
11712;BME280;5912;51.034;6.984;2023-02-11T09:54:59;100424.75;;;-2.02;100.00
11712;BME280;5912;51.034;6.984;2023-02-11T09:57:31;100432.66;;;-1.94;100.00
11712;BME280;5912;51.034;6.984;2023-02-11T09:59:57;100428.22;;;-1.92;100.00
11712;BME280;5912;51.034;6.984;2023-02-11T10:05:01;100442.44;;;-1.88;100.00
11712;BME280;5912;51.034;6.984;2023-02-11T10:07:37;100439.78;;;-1.86;100.00
11712;BME280;5912;51.034;6.984;2023-02-11T10:14:04;100449.69;;;-1.82;100.00
11712;BME280;5912;51.034;6.984;2023-02-11T10:22:09;100462.44;;;-1.80;100.00
11712;BME280;5912;51.034;6.984;2023-02-11T10:24:37;100455.75;;;-1.83;99.92
11712;BME280;5912;51.034;6.984;2023-02-11T10:27:14;100450.59;;;-1.83;99.92
11712;BME280;5912;51.034;6.984;2023-02-11T10:29:47;100442.09;;;-1.83;100.00
11712;BME280;5912;51.034;6.984;2023-02-11T10:32:44;100441.00;;;-1.81;100.00
11712;BME280;5912;51.034;6.984;2023-02-11T10:35:14;100434.09;;;-1.80;100.00
11712;BME280;5912;51.034;6.984;2023-02-11T10:37:42;100437.59;;;-1.81;100.00
11712;BME280;5912;51.034;6.984;2023-02-11T10:40:16;100446.44;;;-1.74;100.00
11712;BME280;5912;51.034;6.984;2023-02-11T10:42:47;100445.38;;;-1.72;99.83
11712;BME280;5912;51.034;6.984;2023-02-11T10:45:31;100422.41;;;-1.84;99.70
11712;BME280;5912;51.034;6.984;2023-02-11T10:48:00;100419.16;;;-1.86;99.29
11712;BME280;5912;51.034;6.984;2023-02-11T10:50:28;100434.28;;;-1.72;99.54
11712;BME280;5912;51.034;6.984;2023-02-11T10:53:11;100430.06;;;-1.64;99.20
11712;BME280;5912;51.034;6.984;2023-02-11T10:55:37;100439.88;;;-1.58;98.96
11712;BME280;5912;51.034;6.984;2023-02-11T10:58:03;100420.72;;;-1.65;99.25
11712;BME280;5912;51.034;6.984;2023-02-11T11:00:33;100445.06;;;-1.48;99.13
11712;BME280;5912;51.034;6.984;2023-02-11T11:03:03;100435.28;;;-1.44;98.52
11712;BME280;5912;51.034;6.984;2023-02-11T11:06:00;100435.28;;;-1.44;97.80
11712;BME280;5912;51.034;6.984;2023-02-11T11:08:47;100440.72;;;-1.48;97.69
11712;BME280;5912;51.034;6.984;2023-02-11T11:11:31;100433.63;;;-1.55;98.07
11712;BME280;5912;51.034;6.984;2023-02-11T11:14:00;100440.16;;;-1.51;98.17
11712;BME280;5912;51.034;6.984;2023-02-11T11:16:32;100437.69;;;-1.53;98.12
11712;BME280;5912;51.034;6.984;2023-02-11T11:24:02;100433.09;;;-1.49;97.84
11712;BME280;5912;51.034;6.984;2023-02-11T11:26:41;100420.09;;;-1.48;98.06
11712;BME280;5912;51.034;6.984;2023-02-11T11:29:12;100426.19;;;-1.48;97.52
11712;BME280;5912;51.034;6.984;2023-02-11T11:31:50;100420.91;;;-1.47;98.04
11712;BME280;5912;51.034;6.984;2023-02-11T11:34:22;100419.16;;;-1.46;97.45
11712;BME280;5912;51.034;6.984;2023-02-11T11:36:49;100428.25;;;-1.42;97.35
11712;BME280;5912;51.034;6.984;2023-02-11T11:39:23;100384.66;;;-1.65;97.61
11712;BME280;5912;51.034;6.984;2023-02-11T11:41:55;100423.09;;;-1.42;97.00
11712;BME280;5912;51.034;6.984;2023-02-11T11:44:26;100422.69;;;-1.38;97.54
11712;BME280;5912;51.034;6.984;2023-02-11T11:49:32;100422.81;;;-1.39;97.23
11712;BME280;5912;51.034;6.984;2023-02-11T11:52:10;100419.72;;;-1.33;97.26
11712;BME280;5912;51.034;6.984;2023-02-11T11:54:46;100413.63;;;-1.32;97.46
11712;BME280;5912;51.034;6.984;2023-02-11T11:57:16;100408.19;;;-1.29;97.25
11712;BME280;5912;51.034;6.984;2023-02-11T11:59:42;100405.47;;;-1.37;96.83
11712;BME280;5912;51.034;6.984;2023-02-11T12:12:46;100404.38;;;-1.35;96.42
11712;BME280;5912;51.034;6.984;2023-02-11T12:15:25;100389.16;;;-1.48;96.41
11712;BME280;5912;51.034;6.984;2023-02-11T12:18:29;100409.00;;;-1.38;97.09
11712;BME280;5912;51.034;6.984;2023-02-11T12:21:21;100396.50;;;-1.43;97.07
11712;BME280;5912;51.034;6.984;2023-02-11T12:26:55;100393.69;;;-1.40;97.09
11712;BME280;5912;51.034;6.984;2023-02-11T12:29:40;100397.06;;;-1.39;97.67
11712;BME280;5912;51.034;6.984;2023-02-11T12:32:24;100401.13;;;-1.37;97.57
11712;BME280;5912;51.034;6.984;2023-02-11T12:35:08;100404.38;;;-1.35;97.04
11712;BME280;5912;51.034;6.984;2023-02-11T12:38:02;100394.75;;;-1.33;97.41
11712;BME280;5912;51.034;6.984;2023-02-11T12:40:44;100398.16;;;-1.32;97.38
11712;BME280;5912;51.034;6.984;2023-02-11T12:57:14;100373.88;;;-1.30;97.14
11712;BME280;5912;51.034;6.984;2023-02-11T13:05:26;100356.91;;;-1.32;95.98
11712;BME280;5912;51.034;6.984;2023-02-11T13:07:49;100349.31;;;-1.34;96.83
11712;BME280;5912;51.034;6.984;2023-02-11T13:10:29;100349.03;;;-1.40;96.89
11712;BME280;5912;51.034;6.984;2023-02-11T13:12:57;100352.69;;;-1.43;96.84
11712;BME280;5912;51.034;6.984;2023-02-11T13:15:46;100362.47;;;-1.46;96.86
11712;BME280;5912;51.034;6.984;2023-02-11T13:18:29;100360.25;;;-1.51;97.29
11712;BME280;5912;51.034;6.984;2023-02-11T13:26:30;100342.63;;;-1.56;98.31
11712;BME280;5912;51.034;6.984;2023-02-11T13:29:22;100343.72;;;-1.58;97.73
11712;BME280;5912;51.034;6.984;2023-02-11T13:32:11;100339.41;;;-1.58;97.98
11712;BME280;5912;51.034;6.984;2023-02-11T13:37:05;100334.25;;;-1.58;97.93
11712;BME280;5912;51.034;6.984;2023-02-11T13:39:36;100332.47;;;-1.57;97.84
11712;BME280;5912;51.034;6.984;2023-02-11T13:42:03;100327.31;;;-1.57;98.38
11712;BME280;5912;51.034;6.984;2023-02-11T13:44:28;100324.31;;;-1.53;98.46
11712;BME280;5912;51.034;6.984;2023-02-11T13:46:59;100318.78;;;-1.48;98.17
11712;BME280;5912;51.034;6.984;2023-02-11T13:49:27;100314.16;;;-1.44;97.96
11712;BME280;5912;51.034;6.984;2023-02-11T13:51:54;100308.06;;;-1.43;97.54
11712;BME280;5912;51.034;6.984;2023-02-11T13:54:36;100307.25;;;-1.44;97.30
11712;BME280;5912;51.034;6.984;2023-02-11T13:57:35;100293.97;;;-1.39;96.58
11712;BME280;5912;51.034;6.984;2023-02-11T14:00:45;100294.38;;;-1.44;96.44
11712;BME280;5912;51.034;6.984;2023-02-11T14:19:40;100260.31;;;-1.38;96.37
11712;BME280;5912;51.034;6.984;2023-02-11T14:22:12;100261.97;;;-1.37;95.52
11712;BME280;5912;51.034;6.984;2023-02-11T14:27:09;100196.88;;;-1.77;96.04
11712;BME280;5912;51.034;6.984;2023-02-11T14:29:41;100245.25;;;-1.42;95.83
11712;BME280;5912;51.034;6.984;2023-02-11T14:35:18;100247.84;;;-1.42;95.40
11712;BME280;5912;51.034;6.984;2023-02-11T14:40:26;100244.06;;;-1.58;95.14
11712;BME280;5912;51.034;6.984;2023-02-11T14:42:54;100230.50;;;-1.60;95.62
11712;BME280;5912;51.034;6.984;2023-02-11T14:45:24;100188.03;;;-1.84;95.17
11712;BME280;5912;51.034;6.984;2023-02-11T14:48:00;100214.06;;;-1.68;95.58
11712;BME280;5912;51.034;6.984;2023-02-11T14:50:32;100219.50;;;-1.71;95.35
11712;BME280;5912;51.034;6.984;2023-02-11T14:53:01;100213.78;;;-1.75;95.63
11712;BME280;5912;51.034;6.984;2023-02-11T14:55:33;100192.00;;;-1.80;95.72
11712;BME280;5912;51.034;6.984;2023-02-11T14:58:12;100189.28;;;-1.79;95.99
11712;BME280;5912;51.034;6.984;2023-02-11T15:00:54;100192.91;;;-1.81;95.14
11712;BME280;5912;51.034;6.984;2023-02-11T15:03:32;100167.03;;;-1.99;94.94